Time;durP1;ratioP1;P1;durP2;ratioP2;P2;SDS_P1;SDS_P2;PMS_P1;PMS_P2;Temp;Humidity;BMP_temperature;BMP_pressure;BME280_temperature;BME280_humidity;BME280_pressure;Samples;Min_cycle;Max_cycle;Signal;HPM_P1;HPM_P2
2021/12/04 00:01:05;;;;;;;26.00;16.52;;;;;;;2.54;100.00;100023.88;5071962;28;20416;-84
2021/12/04 00:03:30;;;;;;;26.70;16.65;;;;;;;2.54;100.00;100019.59;5072599;28;20024;-85
2021/12/04 00:06:02;;;;;;;24.33;15.70;;;;;;;2.56;100.00;100022.16;5075881;28;20020;-85
2021/12/04 00:08:28;;;;;;;25.40;16.05;;;;;;;2.54;100.00;100011.88;5090607;28;20028;-85
2021/12/04 00:10:53;;;;;;;24.80;15.10;;;;;;;2.54;100.00;100009.28;5092834;28;20031;-85
2021/12/04 00:13:19;;;;;;;23.23;15.27;;;;;;;2.55;100.00;100000.72;5092388;28;20028;-85
2021/12/04 00:15:44;;;;;;;24.33;15.38;;;;;;;2.55;100.00;99989.56;5079107;28;20029;-85
2021/12/04 00:18:09;;;;;;;25.55;14.48;;;;;;;2.53;100.00;99979.28;5092331;28;20036;-85
2021/12/04 00:20:36;;;;;;;24.67;14.75;;;;;;;2.53;100.00;99975.88;5088307;28;20172;-84
2021/12/04 00:23:01;;;;;;;28.35;14.73;;;;;;;2.53;100.00;99971.56;5075116;28;20032;-85
2021/12/04 00:25:28;;;;;;;25.20;14.85;;;;;;;2.57;100.00;99975.84;5092610;28;20099;-85
2021/12/04 00:27:54;;;;;;;24.33;15.20;;;;;;;2.53;100.00;99971.56;5091696;28;20028;-84
2021/12/04 00:30:20;;;;;;;23.50;15.30;;;;;;;2.50;100.00;99974.16;5088462;28;20034;-85
2021/12/04 00:32:55;;;;;;;27.10;17.40;;;;;;;2.54;100.00;99970.69;5088213;28;20089;-85
2021/12/04 00:35:33;;;;;;;27.63;17.17;;;;;;;2.57;100.00;99974.97;5088096;28;20032;-85
2021/12/04 00:51:18;;;;;;;25.48;16.13;;;;;;;2.57;100.00;99962.13;5071213;28;20078;-84
2021/12/04 00:53:43;;;;;;;26.65;16.70;;;;;;;2.51;100.00;99944.97;5071742;28;20021;-85
2021/12/04 00:56:09;;;;;;;26.38;17.65;;;;;;;2.58;100.00;99951.84;5070057;28;20031;-85
2021/12/04 00:58:34;;;;;;;28.70;17.70;;;;;;;2.57;100.00;99952.66;5083703;28;20032;-85
2021/12/04 01:00:59;;;;;;;27.23;16.80;;;;;;;2.56;100.00;99948.41;5092035;28;20028;-84
2021/12/04 01:03:25;;;;;;;25.73;17.33;;;;;;;2.56;100.00;99947.56;5091100;28;20046;-85
2021/12/04 01:05:50;;;;;;;30.35;18.00;;;;;;;2.57;100.00;99947.53;5091869;28;20024;-85
2021/12/04 01:08:16;;;;;;;29.88;17.48;;;;;;;2.61;100.00;99952.66;5091980;28;20039;-85
2021/12/04 01:10:41;;;;;;;32.78;17.25;;;;;;;2.60;100.00;99946.66;5091135;28;20028;-85
2021/12/04 01:13:11;;;;;;;28.85;17.55;;;;;;;2.58;100.00;99941.53;5091062;28;20032;-85
2021/12/04 01:15:42;;;;;;;29.98;17.65;;;;;;;2.62;100.00;99952.66;5078495;28;20032;-85
2021/12/04 01:18:08;;;;;;;28.75;17.02;;;;;;;2.63;100.00;99962.09;5071049;28;20070;-86
2021/12/04 01:20:34;;;;;;;28.95;16.70;;;;;;;2.63;100.00;99962.09;5071674;28;20076;-84
2021/12/04 01:22:59;;;;;;;23.20;15.95;;;;;;;2.63;100.00;99956.09;5078589;28;20047;-86
2021/12/04 01:25:24;;;;;;;25.42;15.90;;;;;;;2.63;100.00;99951.78;5090888;28;20150;-85
2021/12/04 01:27:50;;;;;;;24.45;15.27;;;;;;;2.66;100.00;99956.06;5080007;28;20527;-85
2021/12/04 01:30:15;;;;;;;23.80;15.85;;;;;;;2.66;100.00;99956.06;5071238;28;20020;-85
2021/12/04 01:32:41;;;;;;;28.23;15.35;;;;;;;2.64;100.00;99947.50;5080852;28;20043;-85
2021/12/04 01:35:07;;;;;;;25.15;15.63;;;;;;;2.69;100.00;99954.34;5091581;28;20115;-85
2021/12/04 01:37:32;;;;;;;23.95;14.73;;;;;;;2.64;100.00;99935.47;5090582;28;20039;-85
2021/12/04 01:39:57;;;;;;;22.13;14.65;;;;;;;2.68;100.00;99932.06;5077123;28;20087;-85
2021/12/04 01:42:22;;;;;;;23.23;15.00;;;;;;;2.67;100.00;99938.03;5091545;28;20024;-85
2021/12/04 01:44:49;;;;;;;24.90;14.60;;;;;;;2.64;100.00;99939.78;5091383;28;20434;-85
2021/12/04 01:47:16;;;;;;;23.17;14.50;;;;;;;2.71;100.00;99949.16;5090960;28;20047;-85
2021/12/04 01:49:42;;;;;;;22.88;13.90;;;;;;;2.71;100.00;99949.16;5091694;28;20089;-85
2021/12/04 01:52:08;;;;;;;23.90;14.90;;;;;;;2.71;100.00;99944.88;5091615;28;20029;-85
2021/12/04 01:54:34;;;;;;;25.10;14.52;;;;;;;2.71;100.00;99944.03;5090159;28;20066;-85
2021/12/04 01:56:59;;;;;;;24.30;14.55;;;;;;;2.72;100.00;99938.88;5072023;28;20056;-85
2021/12/04 01:59:28;;;;;;;22.00;14.30;;;;;;;2.71;100.00;99942.28;5070663;28;20063;-84
2021/12/04 02:01:54;;;;;;;25.02;14.57;;;;;;;2.72;100.00;99938.88;5071687;28;20025;-85
2021/12/04 02:04:19;;;;;;;22.25;14.10;;;;;;;2.69;100.00;99932.91;5071343;28;20070;-85
2021/12/04 02:06:44;;;;;;;25.02;14.15;;;;;;;2.67;100.00;99926.91;5070118;28;20031;-85
2021/12/04 02:09:12;;;;;;;24.00;14.20;;;;;;;2.69;100.00;99935.47;5094813;28;20024;-85
2021/12/04 02:11:37;;;;;;;26.65;14.95;;;;;;;2.73;100.00;99929.44;5094828;28;20116;-85
2021/12/04 02:14:03;;;;;;;23.15;14.50;;;;;;;2.71;100.00;99919.13;5094484;28;20095;-85
2021/12/04 02:16:28;;;;;;;23.73;14.52;;;;;;;2.71;100.00;99905.41;5094623;28;20055;-86
2021/12/04 02:18:54;;;;;;;24.17;14.52;;;;;;;2.74;100.00;99902.81;5095354;28;20075;-85
2021/12/04 02:21:19;;;;;;;24.13;13.18;;;;;;;2.72;100.00;99899.44;5094007;28;20028;-85
2021/12/04 02:23:45;;;;;;;26.52;14.63;;;;;;;2.69;100.00;99884.00;5093553;28;20016;-85
2021/12/04 02:26:13;;;;;;;23.30;13.93;;;;;;;2.71;100.00;99883.09;5093217;28;20073;-84
2021/12/04 02:28:38;;;;;;;23.50;14.60;;;;;;;2.72;100.00;99884.84;5093876;28;20092;-85
2021/12/04 02:31:04;;;;;;;21.50;13.70;;;;;;;2.66;100.00;99866.84;5094458;28;20457;-85
2021/12/04 02:33:29;;;;;;;25.88;14.38;;;;;;;2.72;100.00;99878.84;5094467;28;20024;-85
2021/12/04 02:35:56;;;;;;;26.23;15.27;;;;;;;2.69;100.00;99864.25;5093838;28;20024;-86
2021/12/04 02:38:25;;;;;;;29.55;15.40;;;;;;;2.64;100.00;99860.84;5093432;28;20036;-85
2021/12/04 02:40:52;;;;;;;25.38;14.57;;;;;;;2.68;100.00;99862.56;5094388;28;20027;-86
2021/12/04 02:43:17;;;;;;;24.13;14.85;;;;;;;2.64;100.00;99852.28;5093327;28;20035;-85
2021/12/04 02:45:44;;;;;;;22.88;14.38;;;;;;;2.66;100.00;99853.13;5088801;28;20396;-85
2021/12/04 02:48:13;;;;;;;24.88;14.77;;;;;;;2.67;100.00;99854.84;5074179;28;20066;-85
2021/12/04 02:50:39;;;;;;;24.23;14.65;;;;;;;2.64;100.00;99844.56;5073226;28;20103;-85
2021/12/04 02:53:04;;;;;;;26.20;14.98;;;;;;;2.65;100.00;99853.97;5090915;28;20028;-86
2021/12/04 02:55:30;;;;;;;28.05;15.05;;;;;;;2.63;100.00;99851.44;5093498;28;20104;-85
2021/12/04 02:57:55;;;;;;;25.05;15.23;;;;;;;2.69;100.00;99863.41;5094151;28;20433;-86
2021/12/04 03:00:23;;;;;;;26.55;14.70;;;;;;;2.69;100.00;99863.41;5093329;28;20614;-85
2021/12/04 03:02:48;;;;;;;25.60;15.15;;;;;;;2.71;100.00;99866.81;5092641;28;20032;-85
2021/12/04 03:05:20;;;;;;;25.65;14.95;;;;;;;2.68;100.00;99854.84;5094018;28;20360;-85
2021/12/04 03:07:46;;;;;;;25.08;13.88;;;;;;;2.72;100.00;99860.81;5093725;28;20479;-85
2021/12/04 03:10:11;;;;;;;22.58;14.05;;;;;;;2.72;100.00;99855.66;5092658;28;20024;-85
2021/12/04 03:12:37;;;;;;;25.67;14.40;;;;;;;2.69;100.00;99843.66;5093688;28;20028;-85
2021/12/04 03:15:03;;;;;;;23.40;13.82;;;;;;;2.73;100.00;99854.78;5093376;28;20051;-85
2021/12/04 03:17:29;;;;;;;22.45;13.10;;;;;;;2.69;100.00;99842.81;5092864;28;20039;-85
2021/12/04 03:19:54;;;;;;;23.33;13.48;;;;;;;2.74;100.00;99847.06;5092924;28;20032;-85
2021/12/04 03:22:22;;;;;;;23.75;12.60;;;;;;;2.74;100.00;99847.06;5085687;28;20052;-86
2021/12/04 03:24:48;;;;;;;19.65;11.90;;;;;;;2.74;100.00;99841.91;5073420;28;20031;-86
2021/12/04 03:27:16;;;;;;;21.13;11.88;;;;;;;2.67;100.00;99837.66;5093331;28;20032;-86
2021/12/04 03:29:47;;;;;;;18.70;11.45;;;;;;;2.68;100.00;99823.97;5092341;28;20119;-85
2021/12/04 03:42:37;;;;;;;15.73;9.65;;;;;;;2.73;100.00;99824.75;5093605;28;19912;-85
2021/12/04 03:45:05;;;;;;;13.38;8.80;;;;;;;2.73;100.00;99819.63;5091904;28;20067;-85
2021/12/04 03:47:31;;;;;;;15.48;9.65;;;;;;;2.70;100.00;99814.50;5092952;28;20031;-85
2021/12/04 03:49:57;;;;;;;14.35;8.85;;;;;;;2.72;100.00;99811.91;5091044;28;20114;-85
2021/12/04 03:52:22;;;;;;;13.02;8.95;;;;;;;2.73;100.00;99816.19;5080830;28;20062;-85
2021/12/04 03:54:48;;;;;;;15.20;8.63;;;;;;;2.73;100.00;99803.31;5093295;28;20028;-85
2021/12/04 03:57:13;;;;;;;13.10;8.63;;;;;;;2.72;100.00;99809.34;5093032;28;20089;-85
2021/12/04 03:59:41;;;;;;;12.30;7.90;;;;;;;2.73;100.00;99801.59;5092238;28;20016;-85
2021/12/04 04:02:09;;;;;;;11.18;7.85;;;;;;;2.71;100.00;99805.03;5092698;28;20529;-85
2021/12/04 04:04:34;;;;;;;10.93;7.63;;;;;;;2.73;100.00;99811.03;5087867;28;20353;-85
2021/12/04 04:07:00;;;;;;;12.18;7.82;;;;;;;2.69;100.00;99809.38;5069717;28;20070;-86
2021/12/04 04:09:26;;;;;;;12.95;8.45;;;;;;;2.72;100.00;99811.91;5070440;28;20473;-85
2021/12/04 04:11:51;;;;;;;12.05;8.32;;;;;;;2.69;100.00;99796.50;5072265;28;20444;-85
2021/12/04 04:14:17;;;;;;;10.98;7.28;;;;;;;2.71;100.00;99792.16;5071030;28;20056;-85
2021/12/04 04:16:42;;;;;;;12.93;7.72;;;;;;;2.66;100.00;99783.66;5072052;28;20020;-85
2021/12/04 04:19:09;;;;;;;10.15;6.97;;;;;;;2.71;100.00;99795.59;5083455;28;20032;-85
2021/12/04 04:21:41;;;;;;;10.70;7.40;;;;;;;2.72;100.00;99792.19;5091721;28;20027;-85
2021/12/04 04:24:11;;;;;;;9.88;6.95;;;;;;;2.72;100.00;99786.19;5092571;28;20392;-85
2021/12/04 04:26:37;;;;;;;10.32;7.50;;;;;;;2.71;100.00;99784.44;5092231;28;20020;-85
2021/12/04 04:29:04;;;;;;;13.45;6.78;;;;;;;2.73;100.00;99793.03;5092059;28;20032;-85
2021/12/04 04:31:30;;;;;;;9.88;6.78;;;;;;;2.75;100.00;99792.16;5091980;28;20089;-86
2021/12/04 04:34:03;;;;;;;11.40;7.45;;;;;;;2.67;100.00;99770.75;5091320;28;20035;-85
2021/12/04 04:39:14;;;;;;;11.05;7.43;;;;;;;2.74;100.00;99766.41;5092369;28;20028;-85
2021/12/04 04:58:22;;;;;;;9.93;6.95;;;;;;;2.71;100.00;99759.56;5079189;28;20069;-86
2021/12/04 05:11:43;;;;;;;9.10;6.32;;;;;;;2.81;100.00;99765.47;5091480;28;20047;-85
2021/12/04 05:14:15;;;;;;;9.73;6.32;;;;;;;2.78;100.00;99757.81;5092044;28;20032;-86
2021/12/04 05:16:51;;;;;;;11.18;6.88;;;;;;;2.79;100.00;99754.38;5090207;28;20020;-85
2021/12/04 05:19:28;;;;;;;9.35;6.43;;;;;;;2.78;100.00;99739.81;5091824;28;20399;-85
2021/12/04 05:21:54;;;;;;;9.82;6.13;;;;;;;2.83;100.00;99737.19;5092269;28;20539;-85
2021/12/04 05:24:21;;;;;;;10.10;6.60;;;;;;;2.79;100.00;99746.66;5089847;28;20127;-85
2021/12/04 05:26:46;;;;;;;9.10;6.43;;;;;;;2.83;100.00;99745.75;5091725;28;20020;-85
2021/12/04 05:29:12;;;;;;;9.82;6.40;;;;;;;2.76;100.00;99726.09;5091554;28;20466;-85
2021/12/04 05:31:37;;;;;;;10.55;5.97;;;;;;;2.85;100.00;99756.88;5090643;28;20036;-85
2021/12/04 05:34:02;;;;;;;8.35;5.85;;;;;;;2.85;100.00;99746.59;5091819;28;20044;-85
2021/12/04 05:36:28;;;;;;;9.52;6.10;;;;;;;2.83;100.00;99742.31;5092067;28;20020;-85
2021/12/04 05:38:53;;;;;;;10.77;5.97;;;;;;;2.86;100.00;99750.88;5090284;28;20047;-86
2021/12/04 05:41:18;;;;;;;9.98;6.10;;;;;;;2.85;100.00;99738.03;5091892;28;20137;-85
2021/12/04 05:43:44;;;;;;;8.35;5.38;;;;;;;2.80;100.00;99738.91;5094711;28;20024;-86
2021/12/04 05:46:24;;;;;;;9.05;6.43;;;;;;;2.83;100.00;99748.31;5094846;28;20158;-85
2021/12/04 05:49:01;;;;;;;10.05;5.97;;;;;;;2.86;100.00;99752.59;5095342;28;20476;-86
2021/12/04 05:51:36;;;;;;;10.73;6.03;;;;;;;2.88;100.00;99740.53;5094466;28;20055;-85
2021/12/04 05:56:48;;;;;;;12.13;6.10;;;;;;;2.85;100.00;99732.88;5063445;28;20040;-86
2021/12/04 05:59:13;;;;;;;10.32;6.45;;;;;;;2.87;100.00;99729.41;5094191;28;20386;-86
2021/12/04 06:01:39;;;;;;;12.57;6.30;;;;;;;2.91;100.00;99740.50;5095246;28;20069;-86
2021/12/04 06:04:04;;;;;;;8.23;5.75;;;;;;;2.88;100.00;99731.13;5082301;28;20017;-85
2021/12/04 06:06:29;;;;;;;10.55;6.72;;;;;;;2.87;100.00;99720.81;5094551;28;20024;-86
2021/12/04 06:08:55;;;;;;;9.68;6.18;;;;;;;2.87;100.00;99729.41;5094267;28;20068;-85
2021/12/04 06:11:21;;;;;;;11.20;6.72;;;;;;;2.85;100.00;99720.00;5095085;28;20024;-86
2021/12/04 06:13:47;;;;;;;9.77;6.47;;;;;;;2.88;100.00;99717.38;5094300;28;20399;-85
2021/12/04 06:16:13;;;;;;;8.85;5.68;;;;;;;2.92;100.00;99719.06;5095137;28;20421;-85
2021/12/04 06:18:39;;;;;;;10.85;6.18;;;;;;;2.88;100.00;99718.25;5094708;28;20119;-85
2021/12/04 06:23:48;;;;;;;8.65;5.78;;;;;;;2.93;100.00;99726.75;5094193;28;20415;-85
2021/12/04 06:26:14;;;;;;;10.50;6.18;;;;;;;2.87;100.00;99713.94;5094303;28;20108;-85
2021/12/04 06:28:40;;;;;;;8.07;5.45;;;;;;;2.93;100.00;99721.63;5094227;28;20024;-85
2021/12/04 06:31:07;;;;;;;8.95;6.13;;;;;;;2.92;100.00;99717.34;5094436;28;20044;-85
2021/12/04 06:33:33;;;;;;;9.40;6.18;;;;;;;2.93;100.00;99720.75;5093607;28;20468;-85
2021/12/04 06:35:58;;;;;;;10.35;6.28;;;;;;;2.91;100.00;99727.63;5093713;28;20043;-85
2021/12/04 06:38:24;;;;;;;8.50;5.45;;;;;;;2.91;100.00;99725.94;5094259;28;20430;-86
2021/12/04 06:40:49;;;;;;;10.77;6.07;;;;;;;2.93;100.00;99729.34;5093750;28;20492;-86
2021/12/04 06:43:18;;;;;;;9.13;6.10;;;;;;;2.95;100.00;99726.75;5094581;28;20028;-86
2021/12/04 06:45:48;;;;;;;10.90;6.32;;;;;;;2.94;100.00;99733.63;5094217;28;20392;-85
2021/12/04 06:48:20;;;;;;;7.80;5.47;;;;;;;2.90;100.00;99726.78;5093441;28;20020;-85
2021/12/04 06:51:10;;;;;;;9.85;5.50;;;;;;;2.89;100.00;99716.53;5093111;28;20507;-86
2021/12/04 06:53:39;;;;;;;9.20;5.80;;;;;;;2.94;100.00;99731.06;5092500;28;20549;-85
2021/12/04 06:56:07;;;;;;;13.60;6.30;;;;;;;2.98;100.00;99737.03;5093174;28;20491;-86
2021/12/04 06:58:32;;;;;;;9.35;5.95;;;;;;;2.97;100.00;99741.31;5093923;28;20044;-85
2021/12/04 07:00:58;;;;;;;12.68;6.40;;;;;;;2.92;100.00;99735.38;5093371;28;20049;-85
2021/12/04 07:03:23;;;;;;;10.38;5.95;;;;;;;2.97;100.00;99735.31;5093369;28;20507;-85
2021/12/04 07:05:49;;;;;;;10.85;6.10;;;;;;;2.93;100.00;99733.63;5094094;28;20032;-85
2021/12/04 07:08:15;;;;;;;9.40;6.28;;;;;;;2.94;100.00;99731.06;5092348;28;20034;-85
2021/12/04 07:10:40;;;;;;;11.48;6.15;;;;;;;2.94;100.00;99728.50;5081497;28;20146;-85
2021/12/04 07:13:06;;;;;;;12.43;6.70;;;;;;;2.99;100.00;99733.56;5094085;28;20020;-86
2021/12/04 07:15:32;;;;;;;11.75;6.78;;;;;;;2.97;100.00;99736.16;5092354;28;20023;-85
2021/12/04 07:17:59;;;;;;;14.25;6.60;;;;;;;2.99;100.00;99734.44;5074781;28;20063;-85
2021/12/04 07:20:24;;;;;;;11.20;5.72;;;;;;;2.97;100.00;99723.28;5073152;28;20016;-85
2021/12/04 07:22:50;;;;;;;9.77;6.20;;;;;;;2.95;100.00;99716.47;5072737;28;20380;-85
2021/12/04 07:25:16;;;;;;;9.73;6.00;;;;;;;2.96;100.00;99719.00;5144356;22;20052;-85
2021/12/04 07:27:41;;;;;;;10.63;5.97;;;;;;;2.93;100.00;99713.88;5073320;28;20078;-85
2021/12/04 07:30:07;;;;;;;11.02;5.93;;;;;;;2.96;100.00;99716.44;5072573;28;20029;-85
2021/12/04 07:32:33;;;;;;;11.65;6.72;;;;;;;3.04;100.00;99724.06;5073285;28;20043;-85
2021/12/04 07:34:59;;;;;;;13.63;6.68;;;;;;;2.99;100.00;99708.69;5073367;28;20495;-85
2021/12/04 07:37:25;;;;;;;10.50;6.45;;;;;;;3.05;100.00;99716.34;5072361;28;20032;-85
2021/12/04 07:39:51;;;;;;;13.73;6.97;;;;;;;3.03;100.00;99723.22;5072323;28;20099;-85
2021/12/04 07:42:16;;;;;;;14.65;6.93;;;;;;;3.03;100.00;99715.50;5073189;28;20031;-85
2021/12/04 07:44:41;;;;;;;10.15;6.05;;;;;;;3.04;100.00;99704.34;5071446;28;20028;-85
2021/12/04 07:47:07;;;;;;;12.38;6.25;;;;;;;3.03;100.00;99705.19;5073249;28;20032;-85
2021/12/04 07:49:32;;;;;;;10.75;6.45;;;;;;;3.07;100.00;99703.44;5073123;28;20052;-85
2021/12/04 07:51:57;;;;;;;11.00;6.20;;;;;;;3.09;100.00;99704.28;5072431;28;20032;-85
2021/12/04 07:54:23;;;;;;;9.25;6.07;;;;;;;3.09;100.00;99708.59;5072824;28;20093;-85
2021/12/04 07:56:48;;;;;;;11.50;6.47;;;;;;;3.13;100.00;99703.38;5072536;28;20028;-84
2021/12/04 07:59:13;;;;;;;11.43;6.13;;;;;;;3.16;100.00;99715.38;5071079;28;20032;-85
2021/12/04 08:01:39;;;;;;;13.13;6.90;;;;;;;3.14;100.00;99693.91;5072516;28;20040;-85
2021/12/04 08:04:04;;;;;;;12.88;6.15;;;;;;;3.18;100.00;99698.19;5054775;28;20020;-85
2021/12/04 08:06:33;;;;;;;11.52;6.40;;;;;;;3.20;100.00;99701.56;5071313;28;20035;-85
2021/12/04 08:08:59;;;;;;;11.95;7.25;;;;;;;3.21;100.00;99696.41;5072642;28;20040;-85
2021/12/04 08:11:28;;;;;;;10.73;6.65;;;;;;;3.21;100.00;99699.00;5072452;28;20028;-84
2021/12/04 08:13:54;;;;;;;14.30;8.38;;;;;;;3.24;100.00;99696.38;5065881;28;20384;-84
2021/12/04 08:16:24;;;;;;;12.48;6.78;;;;;;;3.25;100.00;99687.78;5060008;28;20033;-85
2021/12/04 08:18:50;;;;;;;12.30;7.50;;;;;;;3.30;100.00;99685.13;5067519;28;20039;-85
2021/12/04 08:21:15;;;;;;;15.32;7.13;;;;;;;3.26;100.00;99668.88;5062802;28;20029;-84
2021/12/04 08:23:41;;;;;;;13.18;7.50;;;;;;;3.32;100.00;99675.69;5063744;28;20495;-85
2021/12/04 08:26:06;;;;;;;12.45;7.15;;;;;;;3.36;100.00;99673.91;5052306;28;20037;-85
2021/12/04 08:28:32;;;;;;;13.13;7.35;;;;;;;3.37;100.00;99661.03;5062981;28;20032;-85
2021/12/04 08:30:57;;;;;;;19.02;7.93;;;;;;;3.41;100.00;99662.69;5070964;28;20028;-85
2021/12/04 08:33:25;;;;;;;13.20;7.40;;;;;;;3.38;100.00;99652.41;5068537;28;20177;-85
2021/12/04 08:35:50;;;;;;;12.60;7.47;;;;;;;3.41;100.00;99654.94;5071397;28;20128;-85
2021/12/04 08:38:16;;;;;;;10.90;6.50;;;;;;;3.43;100.00;99657.50;5072303;28;20524;-85
2021/12/04 08:40:43;;;;;;;11.48;7.60;;;;;;;3.45;100.00;99660.91;5071161;28;20051;-85
2021/12/04 08:43:09;;;;;;;11.68;7.22;;;;;;;3.43;100.00;99652.34;5069794;28;20097;-85
2021/12/04 08:45:35;;;;;;;12.10;7.28;;;;;;;3.45;100.00;99645.47;5071902;28;20024;-85
2021/12/04 08:48:00;;;;;;;10.35;6.70;;;;;;;3.44;100.00;99643.75;5053533;28;20033;-85
2021/12/04 08:50:28;;;;;;;10.50;6.72;;;;;;;3.46;100.00;99647.16;5067291;28;20031;-85
2021/12/04 08:52:55;;;;;;;10.85;6.90;;;;;;;3.45;100.00;99648.88;5068161;28;20037;-85
2021/12/04 08:55:22;;;;;;;11.48;7.82;;;;;;;3.44;100.00;99634.31;5071288;28;20368;-84
2021/12/04 08:57:48;;;;;;;11.60;7.03;;;;;;;3.48;100.00;99630.81;5060395;28;20032;-84
2021/12/04 09:00:19;;;;;;;12.90;7.65;;;;;;;3.57;100.00;99632.41;5070793;28;20024;-85
2021/12/04 09:02:45;;;;;;;11.40;7.50;;;;;;;3.66;100.00;99644.28;5070820;28;20032;-85
2021/12/04 09:05:13;;;;;;;10.52;7.10;;;;;;;3.70;100.00;99645.97;5070603;28;20384;-84
2021/12/04 09:07:38;;;;;;;12.15;7.13;;;;;;;3.75;100.00;99641.59;5069610;28;20043;-83
2021/12/04 09:10:05;;;;;;;11.50;7.32;;;;;;;3.81;100.00;99643.22;5070984;28;20033;-83
2021/12/04 09:12:33;;;;;;;12.23;7.82;;;;;;;3.81;100.00;99644.06;5071411;28;20543;-84
2021/12/04 09:14:59;;;;;;;14.80;7.47;;;;;;;3.92;100.00;99637.06;5054657;28;20033;-85
2021/12/04 09:17:25;;;;;;;14.48;8.38;;;;;;;3.95;100.00;99636.13;5065441;28;20037;-84
2021/12/04 09:19:50;;;;;;;14.55;7.97;;;;;;;3.93;100.00;99622.41;5063215;28;20020;-84
2021/12/04 09:22:24;;;;;;;14.05;7.78;;;;;;;4.01;100.00;99624.88;5075794;28;20110;-85
2021/12/04 09:24:53;;;;;;;11.55;7.35;;;;;;;3.99;100.00;99618.00;5075442;28;20090;-85
2021/12/04 09:27:32;;;;;;;12.32;7.90;;;;;;;4.05;100.00;99605.88;5075398;28;20041;-84
2021/12/04 09:30:34;;;;;;;13.63;7.90;;;;;;;4.09;100.00;99625.63;5075334;28;20025;-85
2021/12/04 10:03:08;;;;;;;14.45;8.32;;;;;;;3.83;100.00;99603.66;5074665;28;20036;-85
2021/12/04 10:06:03;;;;;;;17.15;8.90;;;;;;;3.83;100.00;99615.72;5073994;28;20036;-84
2021/12/04 10:16:54;;;;;;;18.45;9.57;;;;;;;3.78;100.00;99594.28;5074392;28;20036;-86
2021/12/04 10:19:45;;;;;;;18.75;9.52;;;;;;;3.74;100.00;99586.59;5068670;28;20064;-84
2021/12/04 10:32:23;;;;;;;18.55;10.45;;;;;;;3.79;100.00;99583.94;5073737;28;20082;-86
2021/12/04 10:33:16;;;;;;;18.40;10.13;;;;;;;3.79;100.00;99562.47;5053918;28;20091;-83
2021/12/04 10:35:43;;;;;;;17.33;10.15;;;;;;;3.88;100.00;99557.16;5071599;28;20016;-86
2021/12/04 10:38:15;;;;;;;21.50;10.95;;;;;;;3.93;100.00;99556.22;5073658;28;20032;-87
2021/12/04 10:40:46;;;;;;;15.57;10.10;;;;;;;3.90;100.00;99545.97;5074031;28;20028;-85
2021/12/04 10:43:16;;;;;;;17.58;10.38;;;;;;;3.99;100.00;99537.22;5073926;28;20391;-86
2021/12/04 10:45:46;;;;;;;17.88;10.68;;;;;;;4.10;100.00;99545.63;5072958;28;20021;-85
2021/12/04 10:48:17;;;;;;;20.90;11.43;;;;;;;4.09;100.00;99537.91;5073759;28;20024;-86
2021/12/04 10:53:35;;;;;;;15.75;10.75;;;;;;;4.12;100.00;99527.50;5074099;28;20503;-85
2021/12/04 11:03:46;;;;;;;15.43;10.82;;;;;;;4.25;100.00;99490.31;5073071;28;20162;-85
2021/12/04 11:22:59;;;;;;;13.27;9.30;;;;;;;4.65;100.00;99482.63;5052700;28;20048;-86
2021/12/04 11:36:24;;;;;;;11.93;8.30;;;;;;;4.78;100.00;99484.94;5072279;28;20035;-86
2021/12/04 11:44:46;;;;;;;15.02;9.18;;;;;;;4.67;100.00;99469.66;5023681;28;20029;-86
2021/12/04 11:47:11;;;;;;;13.77;9.40;;;;;;;4.62;100.00;99468.94;5062049;28;20047;-86
2021/12/04 11:49:36;;;;;;;12.05;9.15;;;;;;;4.59;100.00;99461.25;5073023;28;20028;-87
2021/12/04 11:52:14;;;;;;;13.02;8.90;;;;;;;4.57;100.00;99455.25;5072635;28;20029;-87
2021/12/04 11:54:44;;;;;;;11.93;8.23;;;;;;;4.56;100.00;99448.41;5072354;28;20404;-88
2021/12/04 11:57:12;;;;;;;12.95;9.23;;;;;;;4.50;100.00;99441.63;5072789;28;20036;-87
2021/12/04 11:59:42;;;;;;;13.25;9.07;;;;;;;4.50;100.00;99449.38;5072762;28;20028;-87
2021/12/04 12:02:16;;;;;;;13.00;9.45;;;;;;;4.45;100.00;99446.91;5072881;28;20420;-87
2021/12/04 12:04:46;;;;;;;13.63;9.07;;;;;;;4.42;100.00;99446.97;5057031;28;20055;-89
2021/12/04 12:07:18;;;;;;;15.07;9.13;;;;;;;4.41;100.00;99445.28;5065740;28;20036;-88
2021/12/04 12:09:45;;;;;;;13.27;9.63;;;;;;;4.35;100.00;99437.66;5072675;28;20400;-87
2021/12/04 12:12:14;;;;;;;15.77;9.57;;;;;;;4.39;100.00;99447.03;5055892;28;20369;-87
2021/12/04 12:14:53;;;;;;;14.82;9.30;;;;;;;4.31;100.00;99438.56;5064512;28;20028;-86
2021/12/04 12:17:31;;;;;;;14.15;9.82;;;;;;;4.33;100.00;99444.56;5072627;28;20480;-86
2021/12/04 12:19:57;;;;;;;14.25;9.48;;;;;;;4.33;100.00;99443.72;5071522;28;20025;-86
2021/12/04 12:22:36;;;;;;;15.85;10.57;;;;;;;4.23;100.00;99432.75;5072337;28;20024;-86
2021/12/04 12:26:31;;;;;;;12.55;8.85;;;;;;;4.28;100.00;99442.94;5059537;28;20027;-86
2021/12/04 12:37:19;;;;;;;16.35;10.32;;;;;;;4.25;100.00;99455.91;5072337;28;20059;-86
2021/12/04 12:40:09;;;;;;;15.50;10.45;;;;;;;4.22;100.00;99451.69;5070320;28;20025;-86
2021/12/04 12:42:38;;;;;;;20.05;11.43;;;;;;;4.18;100.00;99450.03;5071918;28;20035;-88
2021/12/04 12:45:32;;;;;;;20.70;11.27;;;;;;;4.17;100.00;99458.66;5072496;28;20036;-89
2021/12/04 12:48:00;;;;;;;21.20;12.13;;;;;;;4.15;100.00;99447.50;5071510;28;20021;-88
2021/12/04 12:50:36;;;;;;;21.45;12.63;;;;;;;4.15;100.00;99450.97;5070809;28;20028;-86
2021/12/04 12:53:08;;;;;;;25.10;13.63;;;;;;;4.16;100.00;99454.38;5064498;28;20537;-86
2021/12/04 12:55:35;;;;;;;26.23;14.48;;;;;;;4.12;100.00;99440.69;5051376;28;20031;-86
2021/12/04 12:58:31;;;;;;;24.10;13.40;;;;;;;4.20;100.00;99450.84;5052331;28;20100;-86
2021/12/04 13:12:21;;;;;;;;;;;;;;;4.23;100.00;99428.44;5071904;28;20047;-85
2021/12/04 13:14:54;;;;;;;32.42;17.38;;;;;;;4.24;100.00;99431.84;5070645;28;20621;-85
2021/12/04 13:17:29;;;;;;;38.70;18.38;;;;;;;4.26;100.00;99431.84;5069951;28;20036;-85
2021/12/04 13:19:56;;;;;;;39.70;18.58;;;;;;;4.28;100.00;99433.47;5059265;28;20040;-84
2021/12/04 13:22:25;;;;;;;38.85;19.10;;;;;;;4.32;100.00;99429.13;5067341;28;20028;-86
2021/12/04 13:24:53;;;;;;;40.75;19.20;;;;;;;4.25;100.00;99420.66;5071502;28;20130;-86
2021/12/04 13:29:58;;;;;;;35.50;18.95;;;;;;;4.31;100.00;99425.69;5070827;28;20052;-86
2021/12/04 13:32:32;;;;;;;34.67;17.35;;;;;;;4.27;100.00;99418.88;5071513;28;20020;-87
2021/12/04 13:35:02;;;;;;;;;;;;;;;4.33;100.00;99423.09;5065216;28;20028;-86
2021/12/04 13:37:29;;;;;;;34.45;17.33;;;;;;;4.30;100.00;99411.09;5066333;28;20458;-86
2021/12/04 13:39:58;;;;;;;34.15;16.67;;;;;;;4.29;100.00;99424.88;5071009;28;20027;-85
2021/12/04 13:42:24;;;;;;;30.20;17.08;;;;;;;4.30;100.00;99423.16;5067298;28;20604;-86
2021/12/04 13:44:50;;;;;;;29.52;16.20;;;;;;;4.25;100.00;99420.66;5070671;28;20059;-85
2021/12/04 13:47:15;;;;;;;31.85;16.58;;;;;;;4.27;100.00;99420.63;5066457;28;20040;-85
2021/12/04 13:49:55;;;;;;;34.30;16.80;;;;;;;4.30;100.00;99421.41;5069366;28;20024;-86
2021/12/04 13:52:21;;;;;;;39.35;17.05;;;;;;;4.28;100.00;99423.16;5060188;28;20021;-87
2021/12/04 13:55:11;;;;;;;32.33;16.20;;;;;;;4.31;100.00;99423.09;5063960;28;20482;-86
2021/12/04 13:57:41;;;;;;;34.15;16.05;;;;;;;4.32;100.00;99424.81;5070040;28;20036;-85
2021/12/04 14:00:10;;;;;;;30.10;16.83;;;;;;;4.33;100.00;99420.50;5070235;28;20530;-87
2021/12/04 14:02:35;;;;;;;34.30;17.17;;;;;;;4.31;100.00;99412.78;5071113;28;20468;-85
2021/12/04 14:05:13;;;;;;;36.50;16.83;;;;;;;4.36;100.00;99421.28;5073523;28;20024;-86
2021/12/04 14:07:53;;;;;;;32.88;16.90;;;;;;;4.33;100.00;99413.59;5075039;28;20021;-86
2021/12/04 14:10:26;;;;;;;34.80;16.13;;;;;;;4.39;100.00;99410.06;5073013;28;20389;-85
2021/12/04 14:12:51;;;;;;;38.17;16.95;;;;;;;4.44;100.00;99424.53;5073927;28;20060;-83
2021/12/04 14:15:20;;;;;;;37.72;17.50;;;;;;;4.30;100.00;99397.34;5068002;28;20060;-83
2021/12/04 14:17:48;;;;;;;40.55;17.98;;;;;;;4.44;100.00;99414.22;5072925;28;20040;-83
2021/12/04 14:20:22;;;;;;;37.45;17.58;;;;;;;4.47;100.00;99429.63;5074552;28;20136;-84